Time;durP1;ratioP1;P1;durP2;ratioP2;P2;SDS_P1;SDS_P2;PMS_P1;PMS_P2;Temp;Humidity;BMP_temperature;BMP_pressure;BME280_temperature;BME280_humidity;BME280_pressure;Samples;Min_cycle;Max_cycle;Signal;HPM_P1;HPM_P2
2023/11/02 00:02:06;;;;;;;4.30;4.00;;;13.30;38.90;;;;;;10385202;28;20229;-71
2023/11/02 00:07:10;;;;;;;4.40;4.00;;;13.20;38.60;;;;;;10390991;28;20236;-71
2023/11/02 00:12:18;;;;;;;3.90;3.60;;;13.10;38.50;;;;;;10385497;28;20246;-71
2023/11/02 00:17:48;;;;;;;5.53;4.30;;;13.00;38.50;;;;;;10388619;28;20331;-71
2023/11/02 00:22:53;;;;;;;4.43;4.03;;;12.90;38.70;;;;;;10384088;28;20240;-71
2023/11/02 00:27:57;;;;;;;5.67;4.57;;;12.80;38.60;;;;;;10393461;28;20237;-71
2023/11/02 00:33:02;;;;;;;5.10;4.60;;;12.70;38.70;;;;;;10383643;28;20256;-71
2023/11/02 00:38:05;;;;;;;4.90;4.40;;;12.60;38.50;;;;;;10387326;28;20209;-71
2023/11/02 00:43:08;;;;;;;4.57;3.97;;;12.40;38.60;;;;;;10389859;28;20264;-71
2023/11/02 00:48:20;;;;;;;4.07;3.70;;;12.30;38.90;;;;;;10386918;28;20246;-71
2023/11/02 00:53:23;;;;;;;4.00;3.60;;;12.20;39.30;;;;;;10392179;28;20226;-71
2023/11/02 00:58:30;;;;;;;3.77;3.33;;;12.20;38.90;;;;;;10388688;28;20225;-71
2023/11/02 01:03:35;;;;;;;3.47;2.63;;;12.20;38.90;;;;;;10389518;28;20232;-71
2023/11/02 01:08:38;;;;;;;3.20;2.70;;;12.10;38.50;;;;;;10391074;28;20874;-71
2023/11/02 01:13:42;;;;;;;2.90;2.60;;;12.00;38.70;;;;;;10391279;28;20244;-71
2023/11/02 01:18:47;;;;;;;3.83;2.70;;;11.90;38.90;;;;;;10393973;28;20611;-71
2023/11/02 01:24:02;;;;;;;2.90;2.70;;;11.90;39.00;;;;;;10389687;28;20790;-71
2023/11/02 01:29:06;;;;;;;2.53;2.33;;;11.90;38.90;;;;;;10388484;28;20252;-71
2023/11/02 01:34:20;;;;;;;3.60;2.67;;;11.90;38.80;;;;;;10394769;28;20236;-71
2023/11/02 01:40:02;;;;;;;3.00;2.47;;;11.80;38.80;;;;;;10389431;28;20313;-71
2023/11/02 01:45:10;;;;;;;2.20;2.10;;;11.80;38.70;;;;;;10393003;28;20597;-71
2023/11/02 01:50:31;;;;;;;2.00;1.80;;;11.70;38.60;;;;;;10388761;28;20317;-71
2023/11/02 01:55:47;;;;;;;2.10;2.00;;;11.70;38.80;;;;;;10388491;28;20234;-71
2023/11/02 02:00:57;;;;;;;2.23;2.03;;;11.70;38.80;;;;;;10395306;28;20695;-71
2023/11/02 02:06:10;;;;;;;2.90;2.23;;;11.70;38.70;;;;;;10383620;28;20228;-71
2023/11/02 02:11:26;;;;;;;2.60;2.03;;;11.70;38.90;;;;;;10393998;28;20229;-71
2023/11/02 02:16:36;;;;;;;2.83;2.63;;;11.70;38.80;;;;;;10390271;28;20236;-71
2023/11/02 02:21:52;;;;;;;3.20;2.50;;;11.60;38.40;;;;;;10383163;28;20218;-71
2023/11/02 02:27:28;;;;;;;3.83;2.30;;;11.60;38.70;;;;;;10391391;28;20247;-71
2023/11/02 02:33:02;;;;;;;2.00;1.90;;;11.50;38.70;;;;;;10365090;28;20736;-71
2023/11/02 02:38:12;;;;;;;2.43;2.23;;;11.50;38.70;;;;;;10398732;28;20226;-71
2023/11/02 02:43:17;;;;;;;2.30;2.10;;;11.40;38.40;;;;;;10392218;28;20602;-71
2023/11/02 02:48:24;;;;;;;2.93;2.13;;;11.40;38.60;;;;;;10394567;28;20225;-71
2023/11/02 02:53:32;;;;;;;2.20;2.00;;;11.30;38.40;;;;;;10388475;28;20237;-71
2023/11/02 02:58:45;;;;;;;2.70;2.50;;;11.20;38.50;;;;;;10402023;28;20312;-71
2023/11/02 03:03:49;;;;;;;2.80;2.50;;;11.10;38.70;;;;;;10398760;28;20741;-71
2023/11/02 03:08:57;;;;;;;3.33;3.03;;;10.90;38.50;;;;;;10388560;28;20318;-71
2023/11/02 03:14:03;;;;;;;3.20;2.90;;;10.70;38.80;;;;;;10400668;28;20301;-71
2023/11/02 03:19:06;;;;;;;4.70;4.23;;;10.60;38.80;;;;;;10392461;28;20313;-71
2023/11/02 03:24:18;;;;;;;2.60;2.40;;;10.50;38.90;;;;;;10399263;28;20753;-71
2023/11/02 03:29:30;;;;;;;2.53;1.90;;;10.40;39.00;;;;;;10395149;28;20234;-71
2023/11/02 03:34:41;;;;;;;2.83;2.63;;;10.30;39.10;;;;;;10385061;28;20238;-71
2023/11/02 03:40:09;;;;;;;2.70;2.50;;;10.20;39.50;;;;;;10393310;28;20329;-74
2023/11/02 03:45:22;;;;;;;2.60;2.40;;;10.10;40.00;;;;;;10392483;28;20299;-74
2023/11/02 03:50:39;;;;;;;2.63;2.43;;;10.00;39.90;;;;;;10390160;28;20315;-74
2023/11/02 03:55:57;;;;;;;2.10;2.00;;;10.10;40.00;;;;;;10396138;28;20231;-71
2023/11/02 04:01:13;;;;;;;2.40;2.20;;;10.10;40.00;;;;;;10394968;28;20721;-71
2023/11/02 04:06:20;;;;;;;2.10;1.93;;;10.00;39.90;;;;;;10386088;28;20239;-71
2023/11/02 04:11:30;;;;;;;2.30;2.10;;;10.10;40.00;;;;;;10385741;28;20229;-71
2023/11/02 04:16:33;;;;;;;2.37;2.20;;;10.00;39.90;;;;;;10391156;28;20232;-71
2023/11/02 04:21:36;;;;;;;2.73;2.00;;;10.10;40.00;;;;;;10396440;28;20260;-71
2023/11/02 04:26:41;;;;;;;2.30;2.10;;;10.10;40.00;;;;;;10385738;28;21052;-71
2023/11/02 04:31:45;;;;;;;2.40;2.20;;;10.10;40.00;;;;;;10388647;28;20307;-71
2023/11/02 04:36:48;;;;;;;2.20;2.00;;;10.20;40.10;;;;;;10389613;28;20228;-76
2023/11/02 04:41:53;;;;;;;3.60;1.93;;;10.20;40.10;;;;;;10397493;28;20248;-76
2023/11/02 04:46:57;;;;;;;2.93;2.70;;;10.20;40.10;;;;;;10392056;28;20241;-75
2023/11/02 04:52:02;;;;;;;2.40;2.20;;;10.20;40.10;;;;;;10397451;28;20572;-76
2023/11/02 04:57:06;;;;;;;3.33;2.20;;;10.20;40.10;;;;;;10395488;28;20221;-75
2023/11/02 05:02:10;;;;;;;3.37;2.00;;;10.20;40.10;;;;;;10391136;28;20233;-75
2023/11/02 05:07:13;;;;;;;2.37;2.17;;;10.10;40.00;;;;;;10393706;28;20257;-76
2023/11/02 05:12:18;;;;;;;2.30;2.10;;;10.10;40.10;;;;;;10394184;28;20230;-76
2023/11/02 05:17:21;;;;;;;2.00;1.90;;;10.20;40.70;;;;;;10395156;28;20229;-74
2023/11/02 05:22:26;;;;;;;2.30;2.10;;;10.20;40.40;;;;;;10396634;28;20253;-73
2023/11/02 05:27:31;;;;;;;2.20;2.00;;;10.30;40.50;;;;;;10389953;28;20222;-74
2023/11/02 05:32:34;;;;;;;2.00;1.90;;;10.30;40.90;;;;;;10395568;28;21028;-74
2023/11/02 05:37:37;;;;;;;2.30;1.90;;;10.40;40.60;;;;;;10394361;28;20626;-73
2023/11/02 05:42:42;;;;;;;2.00;1.90;;;10.40;40.60;;;;;;10394436;28;20235;-74
2023/11/02 05:47:45;;;;;;;4.73;1.90;;;10.50;41.10;;;;;;10396404;28;20221;-74
2023/11/02 05:52:49;;;;;;;2.30;1.97;;;10.50;40.90;;;;;;10393768;28;20237;-74
2023/11/02 05:57:53;;;;;;;3.33;1.90;;;10.60;41.00;;;;;;10392476;28;20225;-73
2023/11/02 06:02:59;;;;;;;1.90;1.80;;;10.60;42.10;;;;;;10387032;28;20225;-73
2023/11/02 06:08:03;;;;;;;2.10;1.90;;;10.70;41.20;;;;;;10388803;28;20237;-73
2023/11/02 06:13:07;;;;;;;2.20;2.00;;;10.70;41.20;;;;;;10394413;28;20229;-71
2023/11/02 06:18:10;;;;;;;1.93;1.70;;;10.80;41.60;;;;;;10386300;28;20586;-71
2023/11/02 06:23:14;;;;;;;2.27;1.80;;;10.80;41.20;;;;;;10377789;28;20234;-71
2023/11/02 06:28:19;;;;;;;2.37;1.60;;;10.90;41.30;;;;;;10389128;28;20229;-73
2023/11/02 06:33:27;;;;;;;2.73;1.47;;;10.90;41.50;;;;;;10389379;28;20237;-75
2023/11/02 06:38:30;;;;;;;1.50;1.40;;;11.00;41.60;;;;;;10384479;28;20225;-75
2023/11/02 06:43:35;;;;;;;1.90;1.60;;;11.10;41.40;;;;;;10388299;28;20237;-75
2023/11/02 06:48:39;;;;;;;2.47;1.50;;;11.20;41.50;;;;;;10390444;28;20257;-75
2023/11/02 06:53:42;;;;;;;1.63;1.23;;;11.30;41.40;;;;;;10384571;28;20233;-75
2023/11/02 06:58:46;;;;;;;2.60;1.50;;;11.40;41.30;;;;;;10393195;28;20256;-75
2023/11/02 07:03:49;;;;;;;1.77;1.60;;;11.50;41.30;;;;;;10389193;28;20239;-75
2023/11/02 07:08:53;;;;;;;1.60;1.37;;;11.60;41.30;;;;;;10380825;28;20226;-75
2023/11/02 07:13:57;;;;;;;2.23;1.50;;;11.70;41.40;;;;;;10389353;28;20237;-71
2023/11/02 07:19:02;;;;;;;1.40;1.30;;;11.80;41.50;;;;;;10390552;28;20222;-71
2023/11/02 07:24:06;;;;;;;1.53;1.43;;;11.90;41.60;;;;;;10390483;28;20232;-71
2023/11/02 07:29:11;;;;;;;1.80;1.40;;;12.00;41.70;;;;;;10396746;28;20309;-71
2023/11/02 07:34:14;;;;;;;1.90;1.30;;;12.10;41.70;;;;;;10395050;28;20329;-75
2023/11/02 07:39:17;;;;;;;2.13;1.40;;;12.20;41.50;;;;;;10397165;28;20240;-76
2023/11/02 07:44:22;;;;;;;2.07;1.37;;;12.30;41.30;;;;;;10394117;28;20772;-75
2023/11/02 07:49:25;;;;;;;2.50;1.57;;;12.40;41.30;;;;;;10395345;28;20704;-75
2023/11/02 07:54:29;;;;;;;5.43;4.77;;;12.40;41.10;;;;;;10392132;28;20234;-75
2023/11/02 07:59:33;;;;;;;4.17;3.80;;;12.50;41.10;;;;;;10387201;28;20221;-74
2023/11/02 08:04:37;;;;;;;4.00;3.50;;;12.60;41.00;;;;;;10388177;28;20252;-73
2023/11/02 08:09:40;;;;;;;2.57;2.27;;;12.70;41.00;;;;;;10395320;28;20979;-73
2023/11/02 08:14:45;;;;;;;3.03;2.73;;;12.70;40.90;;;;;;10393541;28;20237;-73
2023/11/02 08:19:48;;;;;;;1.57;1.47;;;12.80;40.80;;;;;;10391108;28;20243;-73
2023/11/02 08:24:51;;;;;;;2.30;1.30;;;12.90;40.60;;;;;;10393418;28;20332;-73
2023/11/02 08:29:56;;;;;;;1.57;1.17;;;12.90;40.40;;;;;;10388497;28;20225;-73
2023/11/02 08:34:59;;;;;;;1.37;1.27;;;12.90;40.50;;;;;;10396228;28;20724;-71
2023/11/02 08:40:05;;;;;;;1.47;1.37;;;13.00;40.50;;;;;;10388554;28;20304;-71
2023/11/02 08:45:13;;;;;;;2.20;1.30;;;13.10;40.50;;;;;;10391765;28;20712;-71
2023/11/02 08:50:16;;;;;;;1.27;1.13;;;13.20;40.10;;;;;;10392430;28;20226;-71
2023/11/02 08:55:19;;;;;;;2.00;1.10;;;13.20;40.40;;;;;;10385145;28;20617;-71
2023/11/02 09:00:24;;;;;;;1.30;1.20;;;13.30;40.30;;;;;;10388452;28;20240;-70
2023/11/02 09:05:27;;;;;;;1.33;1.23;;;13.40;40.40;;;;;;10392952;28;20241;-70
2023/11/02 09:10:31;;;;;;;1.13;1.00;;;13.50;40.40;;;;;;10394683;28;20229;-70
2023/11/02 09:15:36;;;;;;;1.53;1.27;;;13.50;40.20;;;;;;10393827;28;20232;-70
2023/11/02 09:20:39;;;;;;;1.33;1.23;;;13.60;40.10;;;;;;10393419;28;20712;-70
2023/11/02 09:25:43;;;;;;;2.10;1.30;;;13.70;40.20;;;;;;10393746;28;20232;-71
2023/11/02 09:30:47;;;;;;;1.30;1.20;;;13.80;40.10;;;;;;10393495;28;20233;-70
2023/11/02 09:35:51;;;;;;;1.83;1.30;;;13.90;39.90;;;;;;10395502;28;20284;-70
2023/11/02 09:40:54;;;;;;;1.40;1.30;;;13.90;40.10;;;;;;10393806;28;20221;-70
2023/11/02 09:45:59;;;;;;;1.83;1.07;;;14.00;40.20;;;;;;10395658;28;20311;-70
2023/11/02 09:51:03;;;;;;;1.13;1.13;;;14.10;40.10;;;;;;10388724;28;20231;-70
2023/11/02 09:56:07;;;;;;;2.00;1.20;;;14.10;40.10;;;;;;10392197;28;20236;-70
2023/11/02 10:01:12;;;;;;;1.40;1.30;;;14.10;40.00;;;;;;10394707;28;20229;-70
2023/11/02 10:06:16;;;;;;;1.33;1.20;;;14.10;39.90;;;;;;10395481;28;20734;-70
2023/11/02 10:11:24;;;;;;;1.30;1.20;;;14.20;40.30;;;;;;10393844;28;20237;-70
2023/11/02 10:16:29;;;;;;;1.40;1.30;;;14.20;40.10;;;;;;10394163;28;20662;-70
2023/11/02 10:21:32;;;;;;;1.57;1.30;;;14.20;40.10;;;;;;10389626;28;20305;-70
2023/11/02 10:26:35;;;;;;;1.37;1.27;;;14.30;40.30;;;;;;10392801;28;20292;-70
2023/11/02 10:31:43;;;;;;;2.00;1.80;;;14.40;40.40;;;;;;10388751;28;20352;-69
2023/11/02 10:36:48;;;;;;;1.70;1.60;;;14.40;40.50;;;;;;10393979;28;20221;-75
2023/11/02 10:41:58;;;;;;;1.80;1.70;;;14.50;40.50;;;;;;10390959;28;20230;-70
2023/11/02 10:47:04;;;;;;;2.00;1.83;;;14.50;40.60;;;;;;10392609;28;20307;-70
2023/11/02 10:52:10;;;;;;;2.20;2.00;;;14.50;40.60;;;;;;10374605;28;20229;-73
2023/11/02 10:57:17;;;;;;;2.57;1.90;;;14.40;40.40;;;;;;10388674;28;20321;-70
2023/11/02 11:02:22;;;;;;;2.67;2.27;;;14.40;40.60;;;;;;10386977;28;20253;-70
2023/11/02 11:07:25;;;;;;;2.50;2.30;;;14.40;40.80;;;;;;10396740;28;20232;-73
2023/11/02 11:12:30;;;;;;;3.03;2.40;;;14.30;40.70;;;;;;10401959;28;20229;-73
2023/11/02 11:17:36;;;;;;;3.30;2.60;;;14.30;41.00;;;;;;10400211;28;20249;-73
2023/11/02 11:22:42;;;;;;;2.67;2.47;;;14.20;41.10;;;;;;10395765;28;20238;-73
2023/11/02 11:27:47;;;;;;;2.17;1.90;;;14.20;41.00;;;;;;10396527;28;20242;-70
2023/11/02 11:32:51;;;;;;;3.83;2.27;;;14.10;41.30;;;;;;10393893;28;20598;-72
2023/11/02 11:37:57;;;;;;;2.27;2.07;;;14.10;41.90;;;;;;10396049;28;20759;-70
2023/11/02 11:43:05;;;;;;;4.83;3.53;;;14.20;41.50;;;;;;10398284;28;20251;-71
2023/11/02 11:48:11;;;;;;;3.60;3.30;;;14.30;42.00;;;;;;10395269;28;20279;-71
2023/11/02 11:53:16;;;;;;;2.73;2.53;;;14.30;41.20;;;;;;10395509;28;20482;-71
2023/11/02 11:58:41;;;;;;;3.07;2.87;;;14.40;41.20;;;;;;10397050;28;20233;-71
2023/11/02 12:03:48;;;;;;;2.40;2.20;;;14.40;41.20;;;;;;10392227;28;20237;-71
2023/11/02 12:08:53;;;;;;;2.23;2.03;;;14.50;41.60;;;;;;10392232;28;20226;-71
2023/11/02 12:14:00;;;;;;;4.43;3.60;;;14.40;40.90;;;;;;10391702;28;20233;-72
2023/11/02 12:19:05;;;;;;;7.37;6.67;;;14.40;41.20;;;;;;10391483;28;20260;-72
2023/11/02 12:24:12;;;;;;;2.77;2.50;;;14.40;41.30;;;;;;10391268;28;20229;-72
2023/11/02 12:29:15;;;;;;;3.27;2.90;;;14.30;41.40;;;;;;10394335;28;20763;-76
2023/11/02 12:34:20;;;;;;;2.90;2.70;;;14.20;41.80;;;;;;10394203;28;20233;-76
2023/11/02 12:39:27;;;;;;;3.53;2.87;;;14.10;41.60;;;;;;10391692;28;20232;-76
2023/11/02 12:44:31;;;;;;;2.70;2.50;;;14.00;41.60;;;;;;10391437;28;20242;-76
2023/11/02 12:49:35;;;;;;;2.80;2.60;;;13.90;41.90;;;;;;10393090;28;20229;-76
2023/11/02 12:54:39;;;;;;;3.83;2.73;;;13.70;42.20;;;;;;10391283;28;20256;-74
2023/11/02 12:59:44;;;;;;;2.70;2.50;;;13.70;42.20;;;;;;10388828;28;20229;-74
2023/11/02 13:04:51;;;;;;;2.53;2.33;;;13.70;42.50;;;;;;10394023;28;20226;-71
2023/11/02 13:10:00;;;;;;;2.57;2.37;;;13.70;43.10;;;;;;10390439;28;20229;-69
2023/11/02 13:15:08;;;;;;;2.63;2.30;;;13.80;43.10;;;;;;10387983;28;20260;-69
2023/11/02 13:20:15;;;;;;;2.50;2.30;;;13.80;42.50;;;;;;10391973;28;20232;-70
2023/11/02 13:25:21;;;;;;;3.40;3.10;;;13.80;43.90;;;;;;10385852;28;20230;-69
2023/11/02 13:30:26;;;;;;;2.77;2.57;;;13.90;42.60;;;;;;10389366;28;20237;-69
2023/11/02 13:35:31;;;;;;;3.40;3.10;;;13.90;43.20;;;;;;10391307;28;20229;-71
2023/11/02 13:40:34;;;;;;;2.47;2.27;;;14.00;43.40;;;;;;10390797;28;20587;-71
2023/11/02 13:45:37;;;;;;;2.27;2.17;;;14.10;42.60;;;;;;10390817;28;20902;-71
2023/11/02 13:50:42;;;;;;;2.90;1.90;;;14.10;42.50;;;;;;10392330;28;20220;-71
2023/11/02 13:55:45;;;;;;;2.57;2.00;;;14.10;42.40;;;;;;10385393;28;20773;-71
2023/11/02 14:00:50;;;;;;;3.37;2.40;;;14.20;42.50;;;;;;10391649;28;20222;-71
2023/11/02 14:05:54;;;;;;;2.73;1.97;;;14.20;42.40;;;;;;10384468;28;20634;-69
2023/11/02 14:10:58;;;;;;;2.10;1.90;;;14.20;42.80;;;;;;10381775;28;20218;-69
2023/11/02 14:16:01;;;;;;;2.33;2.13;;;14.20;42.60;;;;;;10391837;28;20676;-69
2023/11/02 14:21:07;;;;;;;1.77;1.67;;;14.30;42.60;;;;;;10389097;28;20210;-70
2023/11/02 14:26:10;;;;;;;1.90;1.70;;;14.20;42.70;;;;;;10390638;28;21205;-70
2023/11/02 14:31:14;;;;;;;2.93;1.80;;;14.30;42.50;;;;;;10390493;28;20232;-70
2023/11/02 14:36:23;;;;;;;3.13;2.93;;;14.30;42.40;;;;;;10397121;28;20236;-70
2023/11/02 14:41:27;;;;;;;5.77;5.27;;;14.30;42.60;;;;;;10398006;28;20325;-69
2023/11/02 14:46:31;;;;;;;4.33;4.03;;;14.30;42.40;;;;;;10399567;28;20300;-69
2023/11/02 14:51:36;;;;;;;3.13;2.93;;;14.30;42.70;;;;;;10401188;28;20667;-70
2023/11/02 14:56:39;;;;;;;2.97;2.67;;;14.20;42.90;;;;;;10397728;28;20228;-69
2023/11/02 15:01:45;;;;;;;3.20;3.00;;;14.10;42.80;;;;;;10398854;28;20271;-72
2023/11/02 15:06:49;;;;;;;3.30;3.00;;;14.00;43.10;;;;;;10397349;28;20229;-72
2023/11/02 15:11:54;;;;;;;3.67;3.30;;;13.90;43.40;;;;;;10398936;28;20225;-72
2023/11/02 15:16:57;;;;;;;5.30;4.40;;;13.70;43.20;;;;;;10394681;28;20234;-72
2023/11/02 15:22:04;;;;;;;6.97;4.70;;;13.60;43.10;;;;;;10396861;28;20665;-72
2023/11/02 15:27:08;;;;;;;4.63;4.23;;;13.60;43.70;;;;;;10396861;28;20581;-72
2023/11/02 15:32:11;;;;;;;4.67;4.03;;;13.50;43.50;;;;;;10398027;28;20230;-72
2023/11/02 15:37:16;;;;;;;3.27;2.97;;;13.60;43.50;;;;;;10388476;28;20256;-72
2023/11/02 15:42:19;;;;;;;3.20;3.00;;;13.50;44.00;;;;;;10394917;28;20260;-73
2023/11/02 15:47:24;;;;;;;3.87;3.57;;;13.40;43.60;;;;;;10395476;28;20232;-72
2023/11/02 15:52:30;;;;;;;3.13;2.93;;;13.40;43.90;;;;;;10397398;28;20703;-72
2023/11/02 15:57:34;;;;;;;3.53;2.93;;;13.30;44.40;;;;;;10398819;28;20245;-72
2023/11/02 16:02:38;;;;;;;2.80;2.60;;;13.30;44.10;;;;;;10395730;28;20236;-72
2023/11/02 16:07:44;;;;;;;4.00;3.60;;;13.30;44.30;;;;;;10395744;28;20642;-69
2023/11/02 16:12:47;;;;;;;3.73;3.03;;;13.20;44.80;;;;;;10392872;28;20229;-70
2023/11/02 16:17:51;;;;;;;4.90;3.37;;;13.20;44.40;;;;;;10394549;28;20795;-69
2023/11/02 16:22:55;;;;;;;3.33;3.03;;;13.20;44.50;;;;;;10394436;28;20324;-69
2023/11/02 16:27:59;;;;;;;8.53;7.67;;;13.20;45.00;;;;;;10395033;28;20231;-71
2023/11/02 16:33:02;;;;;;;5.23;4.80;;;13.20;44.60;;;;;;10392329;28;20236;-71
2023/11/02 16:38:07;;;;;;;5.33;4.83;;;13.20;44.70;;;;;;10392184;28;20233;-71
2023/11/02 16:43:11;;;;;;;4.33;4.00;;;13.20;45.10;;;;;;10393200;28;20238;-71
2023/11/02 16:48:14;;;;;;;3.60;3.33;;;13.30;44.60;;;;;;10392415;28;20248;-72
2023/11/02 16:53:19;;;;;;;5.53;5.03;;;13.30;44.70;;;;;;10391959;28;20287;-71
2023/11/02 16:58:22;;;;;;;3.77;3.47;;;13.20;44.80;;;;;;10394238;28;20229;-71
2023/11/02 17:03:25;;;;;;;6.27;5.67;;;13.20;44.50;;;;;;10390259;28;20265;-71
2023/11/02 17:08:30;;;;;;;3.50;3.10;;;13.20;44.60;;;;;;10390606;28;20229;-71
2023/11/02 17:13:33;;;;;;;2.80;2.50;;;13.10;45.00;;;;;;10384242;28;20312;-71
2023/11/02 17:18:36;;;;;;;2.70;2.33;;;13.10;44.80;;;;;;10386426;28;20229;-71
2023/11/02 17:23:41;;;;;;;3.00;2.27;;;13.00;44.80;;;;;;10382612;28;20279;-71
2023/11/02 17:28:44;;;;;;;2.60;2.40;;;13.00;45.40;;;;;;10385781;28;20304;-72
2023/11/02 17:33:47;;;;;;;6.57;4.27;;;12.90;45.10;;;;;;10381221;28;20248;-72
2023/11/02 17:38:52;;;;;;;2.67;2.47;;;12.90;45.20;;;;;;10379344;28;20222;-71
2023/11/02 17:43:56;;;;;;;2.00;1.90;;;13.00;45.50;;;;;;10384774;28;20236;-72
2023/11/02 17:48:59;;;;;;;1.87;1.77;;;13.00;45.00;;;;;;10384889;28;20247;-72
2023/11/02 17:54:04;;;;;;;3.87;3.40;;;13.00;44.90;;;;;;10379517;28;20815;-72
2023/11/02 17:59:07;;;;;;;9.87;8.63;;;12.80;45.20;;;;;;10382021;28;20593;-72
2023/11/02 18:04:10;;;;;;;5.50;4.93;;;13.00;45.00;;;;;;10382695;28;20593;-72
2023/11/02 18:09:15;;;;;;;3.67;2.90;;;13.00;45.10;;;;;;10380154;28;20230;-72
2023/11/02 18:14:18;;;;;;;3.47;2.70;;;12.90;45.40;;;;;;10378573;28;23390;-72
2023/11/02 18:19:21;;;;;;;3.70;3.40;;;12.90;45.20;;;;;;10372819;28;21570;-72
2023/11/02 18:24:26;;;;;;;3.80;3.50;;;12.80;45.20;;;;;;10367521;28;20230;-70
2023/11/02 18:29:30;;;;;;;4.43;3.57;;;12.80;45.70;;;;;;10367675;28;20230;-70
2023/11/02 18:34:34;;;;;;;5.60;5.13;;;12.70;45.40;;;;;;10366767;28;20233;-70
2023/11/02 18:39:38;;;;;;;4.77;4.37;;;12.70;45.60;;;;;;10368595;28;20221;-70
2023/11/02 18:44:42;;;;;;;3.83;3.53;;;12.60;46.10;;;;;;10368754;28;20241;-72
2023/11/02 18:49:46;;;;;;;4.10;3.03;;;12.60;45.80;;;;;;10372651;28;20228;-72
2023/11/02 18:54:55;;;;;;;3.23;2.93;;;12.60;45.90;;;;;;10368716;28;20290;-71
2023/11/02 18:59:59;;;;;;;3.00;2.30;;;12.50;46.20;;;;;;10371736;28;20233;-75
2023/11/02 19:05:05;;;;;;;2.47;2.20;;;12.50;45.90;;;;;;10378032;28;20225;-74
2023/11/02 19:10:10;;;;;;;1.93;1.73;;;12.50;46.10;;;;;;10378509;28;20236;-75
2023/11/02 19:15:13;;;;;;;1.70;1.60;;;12.40;46.70;;;;;;10376679;28;20230;-74
2023/11/02 19:20:17;;;;;;;1.87;1.67;;;12.40;46.10;;;;;;10385995;28;20228;-75
2023/11/02 19:25:21;;;;;;;1.40;1.30;;;12.40;46.30;;;;;;10386047;28;20240;-74
2023/11/02 19:30:24;;;;;;;1.30;1.20;;;12.30;46.60;;;;;;10383887;28;20229;-75
2023/11/02 19:35:28;;;;;;;1.70;1.50;;;12.30;46.20;;;;;;10385651;28;20641;-75
2023/11/02 19:40:32;;;;;;;1.73;1.50;;;12.30;46.30;;;;;;10383155;28;20236;-75
2023/11/02 19:45:36;;;;;;;1.50;1.40;;;12.30;46.70;;;;;;10391040;28;20237;-70
2023/11/02 19:50:39;;;;;;;1.87;1.77;;;12.30;46.40;;;;;;10382983;28;20223;-70
2023/11/02 19:55:44;;;;;;;1.60;1.50;;;12.30;46.40;;;;;;10384674;28;20229;-70
2023/11/02 20:00:50;;;;;;;1.47;1.37;;;12.20;46.70;;;;;;10381238;28;20230;-70
2023/11/02 20:05:53;;;;;;;1.40;1.30;;;12.30;47.20;;;;;;10388016;28;20963;-70
2023/11/02 20:11:00;;;;;;;1.17;1.10;;;12.20;47.00;;;;;;10378563;28;20312;-70
2023/11/02 20:16:04;;;;;;;1.43;1.20;;;12.30;46.70;;;;;;10382989;28;20816;-75
2023/11/02 20:26:18;;;;;;;3.97;2.90;;;12.30;46.10;;;;;;10354518;28;20321;-76
2023/11/02 20:31:22;;;;;;;3.00;2.57;;;12.30;46.60;;;;;;10393133;28;20575;-75
2023/11/02 20:36:25;;;;;;;1.90;1.70;;;12.30;46.20;;;;;;10403230;28;20230;-76
2023/11/02 20:41:30;;;;;;;2.00;1.50;;;12.40;46.20;;;;;;10398919;28;20795;-75
2023/11/02 20:46:35;;;;;;;1.60;1.50;;;12.40;46.50;;;;;;10401763;28;20232;-74
2023/11/02 20:51:39;;;;;;;1.60;1.50;;;12.40;46.10;;;;;;10391352;28;20774;-75
2023/11/02 20:56:45;;;;;;;4.03;2.60;;;12.40;46.00;;;;;;10396816;28;20929;-75
2023/11/02 21:01:49;;;;;;;1.70;1.60;;;12.50;46.20;;;;;;10393880;28;20272;-76
2023/11/02 21:06:52;;;;;;;1.80;1.70;;;12.50;46.00;;;;;;10395161;28;20231;-76
2023/11/02 21:12:04;;;;;;;1.50;1.40;;;12.50;45.80;;;;;;10393069;28;20276;-76
2023/11/02 21:17:07;;;;;;;1.40;1.20;;;12.50;46.00;;;;;;10396960;28;20240;-77
2023/11/02 21:22:10;;;;;;;1.30;1.20;;;12.40;45.70;;;;;;10388771;28;20230;-75
2023/11/02 21:27:17;;;;;;;1.20;1.10;;;12.40;45.70;;;;;;10408543;28;20320;-77
2023/11/02 21:32:20;;;;;;;1.13;1.00;;;12.40;46.00;;;;;;10412710;28;20264;-75
2023/11/02 21:37:24;;;;;;;1.30;1.20;;;12.50;45.80;;;;;;10428627;28;20332;-75
2023/11/02 21:42:28;;;;;;;1.17;1.07;;;12.40;45.50;;;;;;10429502;28;20225;-75
2023/11/02 21:47:31;;;;;;;1.27;1.17;;;12.40;45.70;;;;;;10431141;28;20240;-75
2023/11/02 21:52:36;;;;;;;1.40;1.23;;;12.40;45.60;;;;;;10432787;28;20266;-74
2023/11/02 21:57:40;;;;;;;1.00;1.00;;;12.40;45.50;;;;;;10428336;28;20390;-74
2023/11/02 22:02:44;;;;;;;1.37;1.27;;;12.30;45.70;;;;;;10433301;28;20220;-74
2023/11/02 22:07:47;;;;;;;1.23;1.13;;;12.40;45.60;;;;;;10441874;28;20225;-74
2023/11/02 22:12:52;;;;;;;1.33;1.23;;;12.30;45.50;;;;;;10435450;28;20231;-74
2023/11/02 22:17:55;;;;;;;1.90;1.20;;;12.20;45.80;;;;;;10442175;28;20235;-74
2023/11/02 22:22:59;;;;;;;0.90;0.90;;;12.20;45.80;;;;;;10436233;28;20654;-74
2023/11/02 22:28:03;;;;;;;1.60;1.10;;;12.10;45.90;;;;;;10435692;28;20234;-74
2023/11/02 22:33:06;;;;;;;1.80;0.90;;;12.00;46.20;;;;;;10436278;28;20230;-74
2023/11/02 22:38:11;;;;;;;0.87;0.80;;;12.00;46.00;;;;;;10429997;28;20233;-74
2023/11/02 22:43:16;;;;;;;0.87;0.87;;;12.00;46.10;;;;;;10442933;28;20307;-74
2023/11/02 22:48:19;;;;;;;0.80;0.80;;;12.10;46.30;;;;;;10425810;28;20265;-74
2023/11/02 22:53:23;;;;;;;1.67;0.90;;;12.10;45.80;;;;;;10426533;28;20256;-74
2023/11/02 22:58:27;;;;;;;0.83;0.83;;;12.10;45.90;;;;;;10440074;28;20228;-74
2023/11/02 23:03:31;;;;;;;1.10;1.00;;;12.00;46.00;;;;;;10436283;28;20217;-74
2023/11/02 23:08:34;;;;;;;0.97;0.97;;;12.00;45.90;;;;;;10448579;28;20307;-74
2023/11/02 23:13:39;;;;;;;1.23;1.10;;;12.00;45.90;;;;;;10436154;28;20720;-75
2023/11/02 23:18:44;;;;;;;2.00;1.00;;;12.00;46.10;;;;;;10430978;28;20249;-75
2023/11/02 23:23:48;;;;;;;0.90;0.90;;;12.00;45.90;;;;;;10436805;28;20217;-75
2023/11/02 23:28:52;;;;;;;1.00;0.80;;;12.00;45.80;;;;;;10438984;28;20252;-75
2023/11/02 23:34:08;;;;;;;1.00;0.87;;;12.00;46.20;;;;;;10432330;28;20273;-75
2023/11/02 23:39:11;;;;;;;0.90;0.90;;;12.00;45.90;;;;;;10441761;28;20706;-75
2023/11/02 23:44:16;;;;;;;0.80;0.80;;;12.00;45.90;;;;;;10443690;28;20217;-74
2023/11/02 23:49:19;;;;;;;1.03;0.70;;;12.00;46.10;;;;;;10436478;28;20366;-74
2023/11/02 23:54:24;;;;;;;0.80;0.80;;;12.00;45.80;;;;;;10432511;28;20328;-74
2023/11/02 23:59:28;;;;;;;0.80;0.80;;;12.00;46.00;;;;;;10440352;28;20225;-74
